Time;durP1;ratioP1;P1;durP2;ratioP2;P2;SDS_P1;SDS_P2;PMS_P1;PMS_P2;Temp;Humidity;BMP_temperature;BMP_pressure;BME280_temperature;BME280_humidity;BME280_pressure;Samples;Min_cycle;Max_cycle;Signal;HPM_P1;HPM_P2
2024/03/11 00:00:37;;;;;;;;;27.00;22.75;;;;;;;;4932491;28;45316;-66
2024/03/11 00:03:02;;;;;;;;;16.50;16.50;;;;;;;;4933925;28;45530;-66
2024/03/11 00:05:27;;;;;;;;;21.75;20.25;;;;;;;;4932944;28;46279;-66
2024/03/11 00:07:54;;;;;;;;;23.33;23.00;;;;;;;;4928876;28;45540;-66
2024/03/11 00:10:19;;;;;;;;;24.25;21.00;;;;;;;;4929771;28;45308;-66
2024/03/11 00:12:51;;;;;;;;;21.33;19.00;;;;;;;;4922638;28;45469;-66
2024/03/11 00:15:20;;;;;;;;;18.25;17.50;;;;;;;;4927504;28;45440;-66
2024/03/11 00:17:47;;;;;;;;;22.00;20.75;;;;;;;;4939431;28;45346;-66
2024/03/11 00:20:12;;;;;;;;;24.50;23.00;;;;;;;;4935312;28;45471;-66
2024/03/11 00:22:37;;;;;;;;;24.00;18.33;;;;;;;;4918464;28;45621;-66
2024/03/11 00:25:06;;;;;;;;;19.33;18.00;;;;;;;;4935334;28;45582;-66
2024/03/11 00:27:32;;;;;;;;;19.75;17.50;;;;;;;;4932648;28;45315;-66
2024/03/11 00:29:57;;;;;;;;;19.00;18.25;;;;;;;;4912361;28;45486;-66
2024/03/11 00:32:24;;;;;;;;;24.50;20.25;;;;;;;;4931383;28;45690;-66
2024/03/11 00:34:51;;;;;;;;;23.75;18.25;;;;;;;;4930333;28;47179;-66
2024/03/11 00:37:16;;;;;;;;;21.00;18.75;;;;;;;;4931406;28;45458;-66
2024/03/11 00:39:42;;;;;;;;;21.25;18.75;;;;;;;;4931731;28;45360;-66
2024/03/11 00:42:07;;;;;;;;;24.00;19.50;;;;;;;;4928266;28;45351;-66
2024/03/11 00:44:32;;;;;;;;;19.67;18.67;;;;;;;;4934541;28;46013;-66
2024/03/11 00:46:58;;;;;;;;;16.67;16.67;;;;;;;;4937158;28;45432;-66
2024/03/11 00:49:26;;;;;;;;;18.00;18.00;;;;;;;;4934357;28;45405;-66
2024/03/11 00:51:51;;;;;;;;;23.00;19.25;;;;;;;;4930646;28;45576;-66
2024/03/11 00:54:16;;;;;;;;;22.33;21.00;;;;;;;;4931574;28;46388;-66
2024/03/11 00:56:43;;;;;;;;;23.33;19.33;;;;;;;;4928861;28;45374;-66
2024/03/11 00:59:09;;;;;;;;;20.25;19.25;;;;;;;;4925079;28;45375;-66
2024/03/11 01:01:34;;;;;;;;;18.25;17.25;;;;;;;;4926625;28;45892;-66
2024/03/11 01:04:00;;;;;;;;;26.33;19.33;;;;;;;;4925273;28;46116;-66
2024/03/11 01:06:28;;;;;;;;;21.67;18.67;;;;;;;;4933179;28;45369;-66
2024/03/11 01:08:54;;;;;;;;;13.75;13.00;;;;;;;;4914268;28;45619;-66
2024/03/11 01:11:19;;;;;;;;;20.25;19.75;;;;;;;;4921176;28;45351;-66
2024/03/11 01:13:45;;;;;;;;;16.67;15.33;;;;;;;;4913129;28;46882;-66
2024/03/11 01:16:11;;;;;;;;;20.25;17.50;;;;;;;;4922342;28;45701;-66
2024/03/11 01:18:36;;;;;;;;;18.75;17.75;;;;;;;;4930208;28;45299;-66
2024/03/11 01:21:02;;;;;;;;;13.00;13.00;;;;;;;;4934576;28;45292;-66
2024/03/11 01:23:28;;;;;;;;;9.00;8.25;;;;;;;;4924257;28;46082;-66
2024/03/11 01:25:54;;;;;;;;;10.00;9.00;;;;;;;;4934081;28;46208;-66
2024/03/11 01:28:19;;;;;;;;;9.75;9.00;;;;;;;;4926867;28;45455;-66
2024/03/11 01:30:44;;;;;;;;;7.25;7.25;;;;;;;;4924159;28;45394;-67
2024/03/11 01:33:10;;;;;;;;;5.25;5.25;;;;;;;;4933287;28;45582;-66
2024/03/11 01:35:37;;;;;;;;;11.25;8.75;;;;;;;;4934973;28;45652;-66
2024/03/11 01:38:02;;;;;;;;;7.50;7.50;;;;;;;;4924886;28;45586;-66
2024/03/11 01:40:27;;;;;;;;;10.67;9.33;;;;;;;;4934714;28;45370;-66
2024/03/11 01:42:54;;;;;;;;;9.00;9.00;;;;;;;;4930700;28;45565;-66
2024/03/11 01:45:19;;;;;;;;;10.00;10.00;;;;;;;;4934494;28;45432;-66
2024/03/11 01:47:45;;;;;;;;;9.00;9.00;;;;;;;;4932728;28;46108;-66
2024/03/11 01:50:10;;;;;;;;;9.67;7.33;;;;;;;;4930834;28;45317;-66
2024/03/11 01:52:37;;;;;;;;;10.75;9.50;;;;;;;;4924444;28;46361;-66
2024/03/11 01:55:03;;;;;;;;;9.00;9.00;;;;;;;;4930574;28;45760;-66
2024/03/11 01:57:29;;;;;;;;;13.25;11.00;;;;;;;;4924052;28;45304;-66
2024/03/11 01:59:54;;;;;;;;;8.50;7.75;;;;;;;;4926006;28;45546;-66
2024/03/11 02:02:20;;;;;;;;;10.00;9.00;;;;;;;;4921384;28;46292;-66
2024/03/11 02:04:46;;;;;;;;;9.75;8.50;;;;;;;;4930629;28;45499;-66
2024/03/11 02:07:13;;;;;;;;;7.50;7.50;;;;;;;;4929655;28;45538;-66
2024/03/11 02:09:39;;;;;;;;;11.75;11.00;;;;;;;;4930711;28;45462;-66
2024/03/11 02:12:05;;;;;;;;;10.00;10.00;;;;;;;;4916226;28;46109;-66
2024/03/11 02:14:30;;;;;;;;;11.25;10.75;;;;;;;;4929403;28;45332;-66
2024/03/11 02:16:58;;;;;;;;;8.00;8.00;;;;;;;;4929250;28;45482;-66
2024/03/11 02:19:23;;;;;;;;;10.50;10.00;;;;;;;;4930077;28;45455;-66
2024/03/11 02:21:51;;;;;;;;;25.00;25.00;;;;;;;;4911120;28;46004;-66
2024/03/11 02:24:16;;;;;;;;;23.50;20.25;;;;;;;;4922977;28;45639;-66
2024/03/11 02:26:42;;;;;;;;;19.25;17.00;;;;;;;;4903447;28;45601;-66
2024/03/11 02:29:08;;;;;;;;;15.25;15.25;;;;;;;;4922448;28;45455;-66
2024/03/11 02:31:35;;;;;;;;;31.75;25.75;;;;;;;;4928751;28;46173;-66
2024/03/11 02:34:00;;;;;;;;;26.00;26.00;;;;;;;;4930126;28;45366;-66
2024/03/11 02:36:25;;;;;;;;;26.67;24.33;;;;;;;;4936060;28;45543;-66
2024/03/11 02:38:50;;;;;;;;;19.50;17.25;;;;;;;;4925437;28;45491;-66
2024/03/11 02:41:16;;;;;;;;;20.00;17.67;;;;;;;;4929370;28;45438;-66
2024/03/11 02:43:41;;;;;;;;;12.67;10.33;;;;;;;;4932910;28;45419;-66
2024/03/11 02:46:06;;;;;;;;;21.75;21.75;;;;;;;;4931895;28;45378;-66
2024/03/11 02:48:31;;;;;;;;;23.33;19.67;;;;;;;;4932036;28;45521;-66
2024/03/11 02:50:56;;;;;;;;;20.33;19.67;;;;;;;;4927260;28;46238;-66
2024/03/11 02:53:22;;;;;;;;;20.67;20.00;;;;;;;;4930812;28;45528;-66
2024/03/11 02:55:47;;;;;;;;;16.33;16.33;;;;;;;;4927384;28;45390;-66
2024/03/11 02:58:12;;;;;;;;;15.33;12.67;;;;;;;;4927308;28;45407;-66
2024/03/11 03:00:37;;;;;;;;;16.00;16.00;;;;;;;;4930756;28;45312;-66
2024/03/11 03:03:05;;;;;;;;;14.33;13.67;;;;;;;;4926657;28;45593;-66
2024/03/11 03:05:30;;;;;;;;;16.25;15.75;;;;;;;;4927588;28;45406;-66
2024/03/11 03:07:56;;;;;;;;;13.50;11.75;;;;;;;;4933538;28;46825;-66
2024/03/11 03:10:21;;;;;;;;;12.50;11.75;;;;;;;;4929569;28;45555;-66
2024/03/11 03:12:46;;;;;;;;;14.00;13.00;;;;;;;;4931542;28;45366;-66
2024/03/11 03:15:12;;;;;;;;;14.33;9.33;;;;;;;;4929239;28;45621;-66
2024/03/11 03:17:38;;;;;;;;;11.75;10.75;;;;;;;;4935762;28;45399;-66
2024/03/11 03:20:05;;;;;;;;;14.00;11.00;;;;;;;;4931492;28;46434;-66
2024/03/11 03:22:30;;;;;;;;;12.00;10.50;;;;;;;;4927112;28;45636;-66
2024/03/11 03:24:56;;;;;;;;;12.00;10.33;;;;;;;;4935410;28;45662;-66
2024/03/11 03:27:21;;;;;;;;;10.25;10.25;;;;;;;;4933984;28;45310;-66
2024/03/11 03:29:46;;;;;;;;;13.25;11.00;;;;;;;;4913038;28;47154;-66
2024/03/11 03:32:12;;;;;;;;;18.33;15.00;;;;;;;;4936151;28;45325;-66
2024/03/11 03:34:37;;;;;;;;;11.50;10.00;;;;;;;;4937682;28;45431;-66
2024/03/11 03:37:02;;;;;;;;;11.67;11.00;;;;;;;;4932912;28;45299;-66
2024/03/11 03:39:28;;;;;;;;;10.50;9.25;;;;;;;;4932562;28;46238;-66
2024/03/11 03:41:53;;;;;;;;;15.50;12.00;;;;;;;;4927887;28;45311;-66
2024/03/11 03:44:19;;;;;;;;;12.67;12.67;;;;;;;;4937834;28;45435;-66
2024/03/11 03:46:44;;;;;;;;;15.00;12.33;;;;;;;;4936480;28;45327;-66
2024/03/11 03:49:09;;;;;;;;;15.67;12.33;;;;;;;;4937157;28;45292;-66
2024/03/11 03:51:34;;;;;;;;;13.00;11.00;;;;;;;;4910190;28;45366;-66
2024/03/11 03:53:59;;;;;;;;;15.00;11.00;;;;;;;;4932477;28;45667;-66
2024/03/11 03:56:29;;;;;;;;;16.00;11.00;;;;;;;;4926347;28;45605;-66
2024/03/11 03:58:54;;;;;;;;;11.50;10.75;;;;;;;;4925695;28;45468;-66
2024/03/11 04:01:22;;;;;;;;;14.50;14.50;;;;;;;;4930024;28;45315;-66
2024/03/11 04:03:47;;;;;;;;;12.25;12.00;;;;;;;;4928715;28;45320;-66
2024/03/11 04:06:12;;;;;;;;;13.33;12.00;;;;;;;;4932137;28;45312;-66
2024/03/11 04:08:38;;;;;;;;;16.33;11.33;;;;;;;;4933565;28;45357;-66
2024/03/11 04:11:05;;;;;;;;;11.00;9.75;;;;;;;;4918716;28;45391;-66
2024/03/11 04:13:30;;;;;;;;;12.75;12.75;;;;;;;;4914975;28;45396;-66
2024/03/11 04:15:56;;;;;;;;;15.00;12.00;;;;;;;;4926460;28;46842;-66
2024/03/11 04:18:23;;;;;;;;;12.00;12.00;;;;;;;;4937376;28;46798;-66
2024/03/11 04:20:49;;;;;;;;;11.25;10.75;;;;;;;;4935862;28;45695;-66
2024/03/11 04:23:14;;;;;;;;;13.00;11.25;;;;;;;;4934436;28;45533;-66
2024/03/11 04:25:41;;;;;;;;;15.33;13.67;;;;;;;;4925129;28;45305;-66
2024/03/11 04:28:08;;;;;;;;;16.50;13.00;;;;;;;;4925349;28;45537;-66
2024/03/11 04:30:36;;;;;;;;;11.25;11.25;;;;;;;;4933026;28;45324;-66
2024/03/11 04:33:01;;;;;;;;;10.25;10.00;;;;;;;;4936951;28;45552;-66
2024/03/11 04:35:31;;;;;;;;;11.50;11.50;;;;;;;;4936116;28;45557;-66
2024/03/11 04:37:58;;;;;;;;;17.25;14.25;;;;;;;;4927085;28;45590;-66
2024/03/11 04:40:24;;;;;;;;;17.00;14.75;;;;;;;;4929026;28;45439;-66
2024/03/11 04:42:50;;;;;;;;;14.50;12.00;;;;;;;;4932943;28;45413;-66
2024/03/11 04:45:17;;;;;;;;;13.67;11.00;;;;;;;;4937016;28;45359;-66
2024/03/11 04:47:42;;;;;;;;;15.75;12.00;;;;;;;;4934812;28;45701;-66
2024/03/11 04:50:10;;;;;;;;;17.67;16.33;;;;;;;;4934217;28;45521;-66
2024/03/11 04:52:36;;;;;;;;;12.25;9.25;;;;;;;;4929162;28;45449;-66
2024/03/11 04:55:02;;;;;;;;;12.00;11.00;;;;;;;;4927058;28;45362;-66
2024/03/11 04:57:28;;;;;;;;;13.50;11.00;;;;;;;;4926026;28;46464;-66
2024/03/11 04:59:53;;;;;;;;;13.67;12.00;;;;;;;;4911657;28;45479;-66
2024/03/11 05:02:18;;;;;;;;;12.00;11.00;;;;;;;;4925339;28;45336;-66
2024/03/11 05:04:43;;;;;;;;;14.00;12.33;;;;;;;;4932199;28;45255;-66
2024/03/11 05:07:09;;;;;;;;;12.00;12.00;;;;;;;;4914213;28;45361;-66
2024/03/11 05:09:34;;;;;;;;;10.00;10.00;;;;;;;;4924527;28;45405;-66
2024/03/11 05:11:59;;;;;;;;;13.50;11.75;;;;;;;;4919010;28;45413;-66
2024/03/11 05:14:25;;;;;;;;;12.25;11.50;;;;;;;;4930156;28;45608;-66
2024/03/11 05:16:50;;;;;;;;;13.33;13.33;;;;;;;;4930410;28;45703;-66
2024/03/11 05:19:15;;;;;;;;;10.33;10.33;;;;;;;;4934392;28;45442;-66
2024/03/11 05:21:40;;;;;;;;;12.00;11.00;;;;;;;;4909316;28;45332;-66
2024/03/11 05:24:06;;;;;;;;;12.00;10.33;;;;;;;;4933646;28;45454;-66
2024/03/11 05:26:31;;;;;;;;;12.00;11.00;;;;;;;;4935873;28;45982;-66
2024/03/11 05:28:56;;;;;;;;;9.67;9.67;;;;;;;;4923419;28;45463;-66
2024/03/11 05:31:21;;;;;;;;;10.33;9.67;;;;;;;;4931228;28;45506;-66
2024/03/11 05:33:46;;;;;;;;;13.25;10.75;;;;;;;;4916461;28;45739;-66
2024/03/11 05:36:13;;;;;;;;;11.00;10.33;;;;;;;;4936093;28;46715;-66
2024/03/11 05:38:38;;;;;;;;;11.00;11.00;;;;;;;;4926355;28;45381;-66
2024/03/11 05:41:04;;;;;;;;;11.67;9.33;;;;;;;;4927634;28;45505;-66
2024/03/11 05:43:29;;;;;;;;;9.00;9.00;;;;;;;;4933956;28;45461;-66
2024/03/11 05:45:54;;;;;;;;;10.00;10.00;;;;;;;;4927555;28;46311;-66
2024/03/11 05:48:19;;;;;;;;;12.25;12.25;;;;;;;;4929853;28;45370;-66
2024/03/11 05:50:45;;;;;;;;;12.00;11.25;;;;;;;;4929965;28;45554;-66
2024/03/11 05:53:12;;;;;;;;;14.00;12.00;;;;;;;;4930114;28;45464;-66
2024/03/11 05:55:38;;;;;;;;;16.75;15.00;;;;;;;;4926114;28;46525;-66
2024/03/11 05:58:08;;;;;;;;;13.00;11.00;;;;;;;;4928844;28;45827;-66
2024/03/11 06:00:33;;;;;;;;;16.75;14.25;;;;;;;;4928470;28;45402;-66
2024/03/11 06:02:59;;;;;;;;;17.25;13.00;;;;;;;;4930419;28;45465;-66
2024/03/11 06:05:24;;;;;;;;;13.33;12.67;;;;;;;;4932542;28;46304;-66
2024/03/11 06:07:51;;;;;;;;;10.00;10.00;;;;;;;;4927885;28;45407;-66
2024/03/11 06:10:16;;;;;;;;;12.50;12.50;;;;;;;;4928361;28;45328;-66
2024/03/11 06:12:43;;;;;;;;;10.50;10.50;;;;;;;;4919131;28;45297;-66
2024/03/11 06:15:09;;;;;;;;;14.50;10.50;;;;;;;;4926912;28;45480;-66
2024/03/11 06:17:34;;;;;;;;;11.50;11.50;;;;;;;;4931189;28;45332;-66
2024/03/11 06:20:00;;;;;;;;;8.75;8.75;;;;;;;;4929738;28;45796;-66
2024/03/11 06:22:27;;;;;;;;;12.50;11.75;;;;;;;;4929618;28;45388;-66
2024/03/11 06:24:52;;;;;;;;;11.00;11.00;;;;;;;;4911849;28;47656;-66
2024/03/11 06:27:18;;;;;;;;;11.50;9.00;;;;;;;;4928604;28;45308;-66
2024/03/11 06:29:43;;;;;;;;;11.00;8.33;;;;;;;;4921417;28;45460;-66
2024/03/11 06:32:09;;;;;;;;;14.00;12.00;;;;;;;;4931757;28;45362;-66
2024/03/11 06:34:34;;;;;;;;;13.25;11.00;;;;;;;;4934478;28;45477;-66
2024/03/11 06:37:00;;;;;;;;;16.33;13.33;;;;;;;;4929261;28;45347;-66
2024/03/11 06:39:25;;;;;;;;;10.67;10.33;;;;;;;;4929225;28;45446;-66
2024/03/11 06:41:51;;;;;;;;;16.00;14.00;;;;;;;;4925154;28;45325;-66
2024/03/11 06:44:17;;;;;;;;;13.50;11.25;;;;;;;;4934803;28;45559;-66
2024/03/11 06:46:42;;;;;;;;;12.25;12.00;;;;;;;;4914240;28;45978;-66
2024/03/11 06:49:08;;;;;;;;;14.67;12.33;;;;;;;;4934889;28;45340;-66
2024/03/11 06:51:33;;;;;;;;;11.25;11.25;;;;;;;;4923870;28;45426;-66
2024/03/11 06:54:01;;;;;;;;;12.67;11.67;;;;;;;;4935189;28;46105;-66
2024/03/11 06:56:27;;;;;;;;;14.50;13.25;;;;;;;;4924881;28;45406;-66
2024/03/11 06:58:52;;;;;;;;;16.00;12.00;;;;;;;;4921670;28;45341;-66
2024/03/11 07:01:17;;;;;;;;;12.67;10.67;;;;;;;;4921626;28;45430;-66
2024/03/11 07:03:43;;;;;;;;;12.00;11.33;;;;;;;;4922490;28;45494;-66
2024/03/11 07:06:11;;;;;;;;;16.33;13.67;;;;;;;;4933991;28;45437;-67
2024/03/11 07:08:36;;;;;;;;;19.00;17.75;;;;;;;;4924780;28;45387;-69
2024/03/11 07:11:03;;;;;;;;;12.00;11.75;;;;;;;;4915642;28;45388;-68
2024/03/11 07:13:37;;;;;;;;;19.00;16.25;;;;;;;;4911127;28;46562;-65
2024/03/11 07:16:06;;;;;;;;;17.00;15.75;;;;;;;;4907025;28;45893;-65
2024/03/11 07:18:33;;;;;;;;;24.50;22.25;;;;;;;;4919779;28;45383;-65
2024/03/11 07:20:59;;;;;;;;;15.75;15.25;;;;;;;;4925878;28;45499;-64
2024/03/11 07:23:28;;;;;;;;;18.50;16.75;;;;;;;;4927078;28;46026;-65
2024/03/11 07:25:54;;;;;;;;;12.25;12.00;;;;;;;;4925018;28;45696;-64
2024/03/11 07:28:20;;;;;;;;;11.50;11.50;;;;;;;;4921824;28;45655;-64
2024/03/11 07:30:47;;;;;;;;;11.00;9.50;;;;;;;;4918540;28;46200;-65
2024/03/11 07:33:15;;;;;;;;;21.25;21.25;;;;;;;;4919385;28;45450;-64
2024/03/11 07:35:43;;;;;;;;;19.50;14.50;;;;;;;;4920200;28;45545;-64
2024/03/11 07:38:09;;;;;;;;;16.25;16.25;;;;;;;;4922528;28;45327;-64
2024/03/11 07:40:35;;;;;;;;;26.00;22.00;;;;;;;;4929000;28;45496;-64
2024/03/11 07:43:00;;;;;;;;;10.50;10.50;;;;;;;;4923222;28;45571;-64
2024/03/11 07:45:26;;;;;;;;;7.50;5.50;;;;;;;;4931220;28;45410;-64
2024/03/11 07:47:53;;;;;;;;;7.25;5.75;;;;;;;;4923660;28;45434;-65
2024/03/11 07:50:19;;;;;;;;;5.00;3.50;;;;;;;;4905393;28;45498;-64
2024/03/11 07:52:44;;;;;;;;;5.00;4.00;;;;;;;;4923061;28;45458;-64
2024/03/11 07:55:09;;;;;;;;;5.00;4.00;;;;;;;;4923356;28;45410;-64
2024/03/11 07:57:37;;;;;;;;;5.00;5.00;;;;;;;;4922876;28;45401;-64
2024/03/11 08:00:05;;;;;;;;;4.25;3.25;;;;;;;;4921155;28;45488;-65
2024/03/11 08:02:30;;;;;;;;;8.00;3.00;;;;;;;;4903657;28;46303;-64
2024/03/11 08:04:56;;;;;;;;;4.25;4.25;;;;;;;;4920695;28;45453;-64
2024/03/11 08:07:22;;;;;;;;;4.00;4.00;;;;;;;;4933434;28;45542;-64
2024/03/11 08:09:47;;;;;;;;;4.50;4.00;;;;;;;;4924406;28;45485;-64
2024/03/11 08:12:13;;;;;;;;;3.50;3.50;;;;;;;;4924360;28;45540;-64
2024/03/11 08:14:38;;;;;;;;;3.00;3.00;;;;;;;;4925311;28;45473;-66
2024/03/11 08:17:06;;;;;;;;;4.00;3.67;;;;;;;;4927887;28;45454;-66
2024/03/11 08:19:32;;;;;;;;;4.75;3.50;;;;;;;;4917067;28;45558;-66
2024/03/11 08:21:57;;;;;;;;;4.00;3.00;;;;;;;;4917658;28;45639;-66
2024/03/11 08:24:24;;;;;;;;;3.00;3.00;;;;;;;;4918711;28;45530;-66
2024/03/11 08:26:49;;;;;;;;;1.00;1.00;;;;;;;;4931154;28;45422;-63
2024/03/11 08:29:14;;;;;;;;;3.50;2.75;;;;;;;;4926552;28;45327;-66
2024/03/11 08:31:40;;;;;;;;;3.33;3.33;;;;;;;;4923152;28;45526;-66
2024/03/11 08:34:06;;;;;;;;;2.00;2.00;;;;;;;;4909459;28;45447;-65
2024/03/11 08:36:31;;;;;;;;;2.00;1.75;;;;;;;;4925268;28;45582;-66
2024/03/11 08:38:57;;;;;;;;;4.00;3.00;;;;;;;;4937216;28;45576;-66
2024/03/11 08:41:23;;;;;;;;;4.00;3.00;;;;;;;;4926635;28;47009;-66
2024/03/11 08:43:48;;;;;;;;;3.75;2.50;;;;;;;;4928043;28;45986;-66
2024/03/11 08:46:16;;;;;;;;;1.00;1.00;;;;;;;;4911743;28;45546;-66
2024/03/11 08:48:41;;;;;;;;;6.75;2.00;;;;;;;;4924006;28;45596;-66
2024/03/11 08:51:06;;;;;;;;;3.00;2.50;;;;;;;;4921518;28;45443;-66
2024/03/11 08:53:32;;;;;;;;;5.33;3.00;;;;;;;;4917745;28;45416;-66
2024/03/11 08:55:57;;;;;;;;;5.00;4.00;;;;;;;;4926323;28;45601;-67
2024/03/11 08:58:22;;;;;;;;;4.00;4.00;;;;;;;;4922426;28;45526;-66
2024/03/11 09:00:51;;;;;;;;;4.25;2.50;;;;;;;;4920987;28;46094;-66
2024/03/11 09:03:17;;;;;;;;;3.50;2.50;;;;;;;;4921395;28;45582;-66
2024/03/11 09:05:42;;;;;;;;;2.75;2.75;;;;;;;;4925465;28;45484;-66
2024/03/11 09:08:08;;;;;;;;;2.75;1.75;;;;;;;;4928636;28;45419;-66
2024/03/11 09:10:33;;;;;;;;;2.67;2.00;;;;;;;;4925208;28;46453;-67
2024/03/11 09:12:58;;;;;;;;;2.00;2.00;;;;;;;;4930696;28;45538;-65
2024/03/11 09:15:24;;;;;;;;;3.25;3.25;;;;;;;;4930805;28;45735;-64
2024/03/11 09:17:50;;;;;;;;;2.00;2.00;;;;;;;;4922389;28;45657;-63
2024/03/11 09:20:16;;;;;;;;;4.00;2.25;;;;;;;;4932225;28;45427;-65
2024/03/11 09:22:46;;;;;;;;;3.00;3.00;;;;;;;;4935654;28;45571;-64
2024/03/11 09:25:13;;;;;;;;;3.00;2.50;;;;;;;;4922479;28;45399;-64
2024/03/11 09:27:38;;;;;;;;;6.50;3.00;;;;;;;;4924785;28;45574;-64
2024/03/11 09:30:04;;;;;;;;;1.25;1.25;;;;;;;;4927926;28;45704;-64
2024/03/11 09:32:29;;;;;;;;;2.50;1.75;;;;;;;;4930087;28;45399;-65
2024/03/11 09:34:58;;;;;;;;;3.33;3.00;;;;;;;;4935063;28;45473;-65
2024/03/11 09:37:24;;;;;;;;;2.25;2.00;;;;;;;;4921658;28;45575;-65
2024/03/11 09:39:49;;;;;;;;;4.00;3.25;;;;;;;;4921477;28;47113;-65
2024/03/11 09:42:15;;;;;;;;;3.50;2.00;;;;;;;;4921169;28;45301;-64
2024/03/11 09:44:40;;;;;;;;;2.75;2.75;;;;;;;;4920710;28;45438;-65
2024/03/11 09:47:07;;;;;;;;;3.75;2.00;;;;;;;;4920859;28;45651;-65
2024/03/11 09:49:33;;;;;;;;;3.50;1.75;;;;;;;;4904118;28;47203;-66
2024/03/11 09:52:01;;;;;;;;;10.00;7.75;;;;;;;;4927590;28;45344;-66
2024/03/11 09:54:26;;;;;;;;;4.00;2.00;;;;;;;;4921277;28;45524;-66
2024/03/11 09:56:52;;;;;;;;;2.50;1.00;;;;;;;;4916450;28;45316;-64
2024/03/11 09:59:18;;;;;;;;;1.75;1.00;;;;;;;;4922133;28;46358;-65
2024/03/11 10:01:52;;;;;;;;;0.75;0.25;;;;;;;;4924275;28;45257;-65
2024/03/11 10:04:22;;;;;;;;;1.00;1.00;;;;;;;;4920969;28;45464;-65
2024/03/11 10:06:57;;;;;;;;;2.75;2.00;;;;;;;;4922900;28;45620;-65
2024/03/11 10:09:23;;;;;;;;;3.00;0.25;;;;;;;;4929592;28;46193;-64
2024/03/11 10:12:07;;;;;;;;;1.00;0.00;;;;;;;;4928307;28;45451;-65
2024/03/11 10:14:34;;;;;;;;;2.50;1.75;;;;;;;;4924723;28;45412;-65
2024/03/11 10:17:19;;;;;;;;;1.50;1.00;;;;;;;;4926285;28;45632;-65
2024/03/11 10:19:46;;;;;;;;;2.00;1.00;;;;;;;;4921704;28;46152;-65
2024/03/11 10:22:12;;;;;;;;;2.00;0.50;;;;;;;;4927183;28;45452;-65
2024/03/11 10:24:37;;;;;;;;;1.00;1.00;;;;;;;;4924426;28;45377;-65
2024/03/11 10:27:17;;;;;;;;;0.33;0.00;;;;;;;;4932766;28;45410;-64
2024/03/11 10:29:42;;;;;;;;;2.00;0.00;;;;;;;;4928494;28;46412;-65
2024/03/11 10:32:07;;;;;;;;;1.00;1.00;;;;;;;;4938004;28;45361;-65
2024/03/11 10:34:34;;;;;;;;;0.00;0.00;;;;;;;;4920949;28;45604;-65
2024/03/11 10:37:03;;;;;;;;;0.50;0.50;;;;;;;;4925911;28;45434;-65
2024/03/11 10:39:37;;;;;;;;;1.25;1.00;;;;;;;;4918458;28;46529;-65
2024/03/11 10:42:02;;;;;;;;;3.50;0.00;;;;;;;;4921207;28;45573;-65
2024/03/11 10:44:33;;;;;;;;;0.00;0.00;;;;;;;;4929894;28;45514;-65
2024/03/11 10:47:14;;;;;;;;;0.75;0.75;;;;;;;;4918636;28;45721;-65
2024/03/11 10:49:40;;;;;;;;;3.00;0.00;;;;;;;;4921358;28;47413;-65
2024/03/11 10:52:09;;;;;;;;;0.00;0.00;;;;;;;;4919867;28;45355;-65
2024/03/11 10:54:38;;;;;;;;;2.50;0.00;;;;;;;;4923004;28;45499;-65
2024/03/11 10:57:11;;;;;;;;;1.25;1.00;;;;;;;;4922278;28;45474;-65
2024/03/11 10:59:38;;;;;;;;;3.00;0.00;;;;;;;;4919725;28;47104;-65
2024/03/11 11:02:04;;;;;;;;;0.75;0.75;;;;;;;;4923271;28;45366;-65
2024/03/11 11:04:33;;;;;;;;;1.25;1.00;;;;;;;;4925860;28;45671;-65
2024/03/11 11:06:58;;;;;;;;;2.50;1.00;;;;;;;;4915802;28;45560;-65
2024/03/11 11:09:29;;;;;;;;;4.00;1.00;;;;;;;;4918062;28;46318;-65
2024/03/11 11:11:55;;;;;;;;;2.00;1.00;;;;;;;;4912889;28;45412;-65
2024/03/11 11:25:42;;;;;;;;;1.00;1.00;;;;;13.71;66.73;100171.41;5137170;27;45400;-63
2024/03/11 11:28:14;;;;;;;;;2.75;2.00;;;;;13.67;66.96;100165.34;5076273;27;45766;-63
2024/03/11 11:30:43;;;;;;;;;3.00;1.25;;;;;13.77;67.09;100168.41;5073126;27;45495;-63
2024/03/11 11:33:10;;;;;;;;;0.00;0.00;;;;;13.80;67.12;100180.75;5073288;27;45556;-63
2024/03/11 11:35:36;;;;;;;;;0.00;0.00;;;;;13.84;67.12;100187.69;5074567;27;45464;-63
2024/03/11 11:38:27;;;;;;;;;1.00;1.00;;;;;13.87;67.05;100177.66;5072757;27;45693;-63
2024/03/11 11:40:56;;;;;;;;;4.00;0.25;;;;;13.88;66.78;100184.78;5068023;27;45350;-63
2024/03/11 11:43:41;;;;;;;;;2.75;0.75;;;;;13.88;66.59;100194.63;5075152;27;45457;-63
2024/03/11 11:46:09;;;;;;;;;3.00;1.00;;;;;13.86;66.45;100196.53;5069416;27;45547;-62
2024/03/11 11:48:37;;;;;;;;;1.00;0.00;;;;;13.92;66.90;100204.25;5071119;27;45449;-63
2024/03/11 11:51:02;;;;;;;;;0.00;0.00;;;;;13.93;67.70;100197.06;5074062;27;45265;-63
2024/03/11 11:53:31;;;;;;;;;1.00;1.00;;;;;13.93;68.44;100197.06;5073118;27;45484;-63
2024/03/11 11:55:57;;;;;;;;;2.00;2.00;;;;;13.89;68.02;100196.38;5073161;27;45441;-63
2024/03/11 11:58:24;;;;;;;;;2.00;2.00;;;;;13.92;68.31;100200.72;5071630;27;45546;-63
2024/03/11 12:00:58;;;;;;;;;0.50;0.00;;;;;13.95;68.04;100209.44;5072858;27;45422;-63
2024/03/11 12:03:36;;;;;;;;;1.00;0.00;;;;;13.95;68.18;100201.41;5070014;27;45530;-63
2024/03/11 12:06:19;;;;;;;;;1.00;0.75;;;;;13.96;67.79;100203.13;5067391;27;46225;-63
2024/03/11 12:08:47;;;;;;;;;2.00;2.00;;;;;13.90;68.00;100192.75;5070790;27;45507;-63
2024/03/11 12:11:15;;;;;;;;;1.00;1.00;;;;;14.00;68.04;100211.84;5072243;27;45514;-63
2024/03/11 12:13:42;;;;;;;;;3.00;1.00;;;;;14.00;67.66;100209.19;5072632;27;45607;-63
2024/03/11 12:16:12;;;;;;;;;1.00;0.00;;;;;14.01;67.51;100213.59;5072650;27;45530;-63
2024/03/11 12:18:39;;;;;;;;;0.00;0.00;;;;;14.01;67.55;100217.16;5073424;27;45580;-63
2024/03/11 12:21:11;;;;;;;;;1.25;1.25;;;;;14.02;67.37;100224.25;5072966;27;45479;-63
2024/03/11 12:23:37;;;;;;;;;2.00;2.00;;;;;14.04;67.19;100219.66;5077808;27;45383;-63
2024/03/11 12:26:03;;;;;;;;;0.75;0.75;;;;;14.01;67.09;100219.81;5083048;27;45424;-63
2024/03/11 12:28:29;;;;;;;;;1.75;1.00;;;;;14.03;67.14;100219.75;5078804;27;45654;-63
2024/03/11 12:30:54;;;;;;;;;2.00;2.00;;;;;14.06;67.61;100222.25;5086184;27;45460;-64
2024/03/11 12:33:23;;;;;;;;;2.00;1.25;;;;;14.08;67.52;100226.63;5077980;27;45388;-64
2024/03/11 12:35:50;;;;;;;;;1.75;1.75;;;;;14.08;66.90;100223.03;5076007;27;45649;-64
2024/03/11 12:38:16;;;;;;;;;4.00;1.00;;;;;14.09;67.14;100231.00;5073036;27;45465;-64
2024/03/11 12:40:44;;;;;;;;;3.00;1.00;;;;;14.12;66.25;100246.09;5072435;27;46147;-64
2024/03/11 12:43:20;;;;;;;;;1.25;1.00;;;;;14.12;66.69;100247.91;5074724;27;45582;-64
2024/03/11 12:45:54;;;;;;;;;1.25;1.25;;;;;14.07;68.34;100246.34;5073239;27;46983;-64
2024/03/11 12:48:22;;;;;;;;;4.75;2.50;;;;;14.01;70.06;100241.28;5072704;27;45492;-63
2024/03/11 12:50:52;;;;;;;;;2.00;2.00;;;;;13.96;70.73;100248.72;5073338;27;45561;-65
2024/03/11 12:53:20;;;;;;;;;2.50;2.00;;;;;13.91;70.54;100240.06;5070717;28;45488;-64
2024/03/11 12:55:45;;;;;;;;;1.75;1.75;;;;;13.95;71.04;100251.50;5074851;27;45820;-64
2024/03/11 12:58:21;;;;;;;;;2.00;2.00;;;;;13.94;71.29;100252.47;5076328;27;45443;-64
2024/03/11 13:01:04;;;;;;;;;3.50;2.25;;;;;13.93;71.24;100251.56;5067549;28;45851;-64
2024/03/11 13:03:30;;;;;;;;;1.00;0.50;;;;;13.94;71.29;100257.84;5076771;27;45437;-65
2024/03/11 13:06:01;;;;;;;;;1.00;1.00;;;;;13.94;70.98;100263.19;5075366;27;45962;-64
2024/03/11 13:08:30;;;;;;;;;3.00;1.00;;;;;13.87;70.66;100259.97;5071650;27;45721;-64
2024/03/11 13:11:24;;;;;;;;;2.00;2.00;;;;;13.81;70.06;100262.97;5074070;27;46824;-64
2024/03/11 13:13:48;;;;;;;;;2.75;2.00;;;;;13.82;70.32;100260.22;5072711;28;45418;-64
2024/03/11 13:16:16;;;;;;;;;3.50;3.00;;;;;13.82;70.22;100260.22;5074531;27;64118;-64
2024/03/11 13:18:43;;;;;;;;;2.50;2.50;;;;;13.76;71.00;100252.50;5075624;28;45714;-64
2024/03/11 13:21:09;;;;;;;;;4.25;4.25;;;;;13.79;70.98;100260.38;5075363;27;45484;-64
2024/03/11 13:23:35;;;;;;;;;5.00;4.25;;;;;13.76;71.16;100259.69;5074670;28;62366;-65
2024/03/11 13:26:03;;;;;;;;;5.50;5.50;;;;;13.79;71.11;100262.19;5075669;27;46358;-64
2024/03/11 13:28:31;;;;;;;;;5.25;5.25;;;;;13.75;71.43;100260.63;5075471;27;45746;-64
2024/03/11 13:30:57;;;;;;;;;8.00;8.00;;;;;13.79;71.26;100265.75;5075807;27;45542;-64
2024/03/11 13:33:24;;;;;;;;;7.75;6.75;;;;;13.79;71.55;100267.56;5075225;28;45448;-65
2024/03/11 13:35:50;;;;;;;;;7.25;7.00;;;;;13.75;72.34;100257.94;5075212;28;46328;-65
2024/03/11 13:38:15;;;;;;;;;8.25;7.00;;;;;13.77;72.27;100269.47;5074637;27;45743;-65
2024/03/11 13:40:41;;;;;;;;;6.50;6.50;;;;;13.76;71.96;100268.59;5073868;27;45550;-65
2024/03/11 13:43:11;;;;;;;;;12.00;8.00;;;;;13.74;72.25;100275.84;5075642;28;45593;-65
2024/03/11 13:45:40;;;;;;;;;9.75;8.75;;;;;13.75;72.29;100274.03;5076007;27;46127;-65
2024/03/11 13:48:07;;;;;;;;;9.25;9.25;;;;;13.72;71.77;100272.38;5074567;27;45698;-65
2024/03/11 13:50:33;;;;;;;;;8.00;7.00;;;;;13.70;72.00;100280.53;5075478;27;45511;-65
2024/03/11 13:52:58;;;;;;;;;10.25;7.25;;;;;13.71;71.69;100287.63;5074657;27;45504;-65
2024/03/11 13:55:24;;;;;;;;;10.75;9.00;;;;;13.70;72.33;100271.63;5075170;27;45786;-65